sensor_id;sensor_type;location;lat;lon;timestamp;P1;durP1;ratioP1;P2;durP2;ratioP2
52067;SDS011;60237;52.338;21.228;2023-06-22T00:02:18;785.40;;;722.30;;
52067;SDS011;60237;52.338;21.228;2023-06-22T00:04:45;799.78;;;735.88;;
52067;SDS011;60237;52.338;21.228;2023-06-22T00:07:12;786.83;;;725.80;;
52067;SDS011;60237;52.338;21.228;2023-06-22T00:09:38;780.00;;;719.60;;
52067;SDS011;60237;52.338;21.228;2023-06-22T00:12:05;797.90;;;734.63;;
52067;SDS011;60237;52.338;21.228;2023-06-22T00:14:32;793.97;;;731.42;;
52067;SDS011;60237;52.338;21.228;2023-06-22T00:16:58;780.15;;;719.15;;
52067;SDS011;60237;52.338;21.228;2023-06-22T00:19:25;779.35;;;717.92;;
52067;SDS011;60237;52.338;21.228;2023-06-22T00:21:52;794.15;;;732.25;;
52067;SDS011;60237;52.338;21.228;2023-06-22T00:24:20;751.85;;;693.05;;
52067;SDS011;60237;52.338;21.228;2023-06-22T00:26:49;782.63;;;717.53;;
52067;SDS011;60237;52.338;21.228;2023-06-22T00:29:16;763.88;;;705.40;;
52067;SDS011;60237;52.338;21.228;2023-06-22T00:31:44;770.28;;;710.03;;
52067;SDS011;60237;52.338;21.228;2023-06-22T00:34:11;781.13;;;718.30;;
52067;SDS011;60237;52.338;21.228;2023-06-22T00:36:38;763.75;;;704.63;;
52067;SDS011;60237;52.338;21.228;2023-06-22T00:39:07;770.83;;;707.85;;
52067;SDS011;60237;52.338;21.228;2023-06-22T00:41:35;753.58;;;696.15;;
52067;SDS011;60237;52.338;21.228;2023-06-22T00:44:03;756.65;;;697.17;;
52067;SDS011;60237;52.338;21.228;2023-06-22T00:46:30;752.17;;;693.75;;
52067;SDS011;60237;52.338;21.228;2023-06-22T00:48:58;738.80;;;682.20;;
52067;SDS011;60237;52.338;21.228;2023-06-22T00:51:27;752.22;;;691.17;;
52067;SDS011;60237;52.338;21.228;2023-06-22T00:53:53;759.35;;;697.55;;
52067;SDS011;60237;52.338;21.228;2023-06-22T00:56:22;739.17;;;681.55;;
52067;SDS011;60237;52.338;21.228;2023-06-22T00:58:51;750.97;;;690.05;;
52067;SDS011;60237;52.338;21.228;2023-06-22T01:01:19;744.47;;;686.30;;
52067;SDS011;60237;52.338;21.228;2023-06-22T01:03:50;752.13;;;691.03;;
52067;SDS011;60237;52.338;21.228;2023-06-22T01:06:19;722.13;;;666.05;;
52067;SDS011;60237;52.338;21.228;2023-06-22T01:08:51;735.15;;;674.97;;
52067;SDS011;60237;52.338;21.228;2023-06-22T01:11:22;742.35;;;683.40;;
52067;SDS011;60237;52.338;21.228;2023-06-22T01:13:54;735.47;;;676.83;;
52067;SDS011;60237;52.338;21.228;2023-06-22T01:18:53;730.92;;;673.08;;
52067;SDS011;60237;52.338;21.228;2023-06-22T01:21:22;740.20;;;678.00;;
52067;SDS011;60237;52.338;21.228;2023-06-22T01:26:35;733.35;;;674.63;;
52067;SDS011;60237;52.338;21.228;2023-06-22T01:29:02;730.40;;;672.72;;
52067;SDS011;60237;52.338;21.228;2023-06-22T01:31:30;721.92;;;665.85;;
52067;SDS011;60237;52.338;21.228;2023-06-22T01:34:04;709.03;;;653.08;;
52067;SDS011;60237;52.338;21.228;2023-06-22T01:36:32;723.80;;;666.28;;
52067;SDS011;60237;52.338;21.228;2023-06-22T01:38:59;734.85;;;674.42;;
52067;SDS011;60237;52.338;21.228;2023-06-22T01:41:27;720.97;;;663.05;;
52067;SDS011;60237;52.338;21.228;2023-06-22T01:43:55;724.17;;;667.47;;
52067;SDS011;60237;52.338;21.228;2023-06-22T01:46:22;715.92;;;659.60;;
52067;SDS011;60237;52.338;21.228;2023-06-22T01:48:49;718.63;;;659.55;;
52067;SDS011;60237;52.338;21.228;2023-06-22T01:51:16;723.53;;;665.67;;
52067;SDS011;60237;52.338;21.228;2023-06-22T01:53:43;726.63;;;669.40;;
52067;SDS011;60237;52.338;21.228;2023-06-22T01:56:10;709.92;;;654.17;;
52067;SDS011;60237;52.338;21.228;2023-06-22T01:58:40;722.80;;;665.17;;
52067;SDS011;60237;52.338;21.228;2023-06-22T02:01:10;908.67;;;736.28;;
52067;SDS011;60237;52.338;21.228;2023-06-22T02:03:44;724.20;;;665.20;;
52067;SDS011;60237;52.338;21.228;2023-06-22T02:06:15;729.45;;;668.40;;
52067;SDS011;60237;52.338;21.228;2023-06-22T02:08:46;730.90;;;668.97;;
52067;SDS011;60237;52.338;21.228;2023-06-22T02:11:15;727.83;;;668.10;;
52067;SDS011;60237;52.338;21.228;2023-06-22T02:13:44;726.05;;;667.45;;
52067;SDS011;60237;52.338;21.228;2023-06-22T02:16:12;725.53;;;666.08;;
52067;SDS011;60237;52.338;21.228;2023-06-22T02:18:45;725.40;;;665.70;;
52067;SDS011;60237;52.338;21.228;2023-06-22T02:21:12;723.47;;;663.72;;
52067;SDS011;60237;52.338;21.228;2023-06-22T02:23:38;719.28;;;660.92;;
52067;SDS011;60237;52.338;21.228;2023-06-22T02:26:05;739.60;;;675.40;;
52067;SDS011;60237;52.338;21.228;2023-06-22T02:28:32;717.03;;;659.13;;
52067;SDS011;60237;52.338;21.228;2023-06-22T02:30:58;717.33;;;659.22;;
52067;SDS011;60237;52.338;21.228;2023-06-22T02:33:25;733.30;;;671.60;;
52067;SDS011;60237;52.338;21.228;2023-06-22T02:35:51;745.03;;;679.78;;
52067;SDS011;60237;52.338;21.228;2023-06-22T02:38:21;714.47;;;655.78;;
52067;SDS011;60237;52.338;21.228;2023-06-22T02:40:51;736.28;;;674.55;;
52067;SDS011;60237;52.338;21.228;2023-06-22T02:43:17;727.47;;;667.38;;
52067;SDS011;60237;52.338;21.228;2023-06-22T02:45:44;733.25;;;671.97;;
52067;SDS011;60237;52.338;21.228;2023-06-22T02:48:11;729.40;;;669.15;;
52067;SDS011;60237;52.338;21.228;2023-06-22T02:50:38;742.38;;;679.45;;
52067;SDS011;60237;52.338;21.228;2023-06-22T02:53:05;766.58;;;698.03;;
52067;SDS011;60237;52.338;21.228;2023-06-22T02:55:35;739.35;;;678.13;;
52067;SDS011;60237;52.338;21.228;2023-06-22T02:58:02;740.55;;;680.20;;
52067;SDS011;60237;52.338;21.228;2023-06-22T03:00:34;743.22;;;679.90;;
52067;SDS011;60237;52.338;21.228;2023-06-22T03:03:00;747.47;;;684.55;;
52067;SDS011;60237;52.338;21.228;2023-06-22T03:05:27;731.70;;;673.60;;
52067;SDS011;60237;52.338;21.228;2023-06-22T03:07:56;751.35;;;688.40;;
52067;SDS011;60237;52.338;21.228;2023-06-22T03:10:24;752.95;;;690.35;;
52067;SDS011;60237;52.338;21.228;2023-06-22T03:12:51;736.67;;;679.03;;
52067;SDS011;60237;52.338;21.228;2023-06-22T03:15:17;736.75;;;678.05;;
52067;SDS011;60237;52.338;21.228;2023-06-22T03:17:47;769.38;;;702.15;;
52067;SDS011;60237;52.338;21.228;2023-06-22T03:20:14;739.40;;;680.90;;
52067;SDS011;60237;52.338;21.228;2023-06-22T03:22:41;759.42;;;697.50;;
52067;SDS011;60237;52.338;21.228;2023-06-22T03:25:08;756.40;;;694.70;;
52067;SDS011;60237;52.338;21.228;2023-06-22T03:27:42;767.35;;;701.72;;
52067;SDS011;60237;52.338;21.228;2023-06-22T03:30:10;767.05;;;705.25;;
52067;SDS011;60237;52.338;21.228;2023-06-22T03:32:37;763.45;;;701.42;;
52067;SDS011;60237;52.338;21.228;2023-06-22T03:35:05;760.95;;;699.30;;
52067;SDS011;60237;52.338;21.228;2023-06-22T03:37:34;769.92;;;706.90;;
52067;SDS011;60237;52.338;21.228;2023-06-22T03:40:01;761.55;;;699.38;;
52067;SDS011;60237;52.338;21.228;2023-06-22T03:42:30;763.80;;;701.13;;
52067;SDS011;60237;52.338;21.228;2023-06-22T03:44:57;797.30;;;728.20;;
52067;SDS011;60237;52.338;21.228;2023-06-22T03:47:24;753.35;;;693.25;;
52067;SDS011;60237;52.338;21.228;2023-06-22T03:49:51;771.53;;;710.15;;
52067;SDS011;60237;52.338;21.228;2023-06-22T03:52:21;783.40;;;717.45;;
52067;SDS011;60237;52.338;21.228;2023-06-22T03:54:48;772.60;;;708.60;;
52067;SDS011;60237;52.338;21.228;2023-06-22T03:57:15;776.70;;;714.08;;
52067;SDS011;60237;52.338;21.228;2023-06-22T03:59:42;798.03;;;732.10;;
52067;SDS011;60237;52.338;21.228;2023-06-22T04:02:08;784.60;;;722.05;;
52067;SDS011;60237;52.338;21.228;2023-06-22T04:04:35;780.85;;;716.75;;
52067;SDS011;60237;52.338;21.228;2023-06-22T04:07:02;778.47;;;714.28;;
52067;SDS011;60237;52.338;21.228;2023-06-22T04:09:30;782.35;;;718.97;;
52067;SDS011;60237;52.338;21.228;2023-06-22T04:11:56;783.92;;;719.78;;
52067;SDS011;60237;52.338;21.228;2023-06-22T04:14:23;787.10;;;722.75;;
52067;SDS011;60237;52.338;21.228;2023-06-22T04:16:49;765.13;;;704.42;;
52067;SDS011;60237;52.338;21.228;2023-06-22T04:19:16;779.60;;;716.42;;
52067;SDS011;60237;52.338;21.228;2023-06-22T04:21:44;803.15;;;735.92;;
52067;SDS011;60237;52.338;21.228;2023-06-22T04:24:11;799.90;;;732.63;;
52067;SDS011;60237;52.338;21.228;2023-06-22T04:26:38;796.53;;;731.70;;
52067;SDS011;60237;52.338;21.228;2023-06-22T04:29:07;802.85;;;738.00;;
52067;SDS011;60237;52.338;21.228;2023-06-22T04:31:35;810.78;;;743.55;;
52067;SDS011;60237;52.338;21.228;2023-06-22T04:34:05;812.17;;;745.65;;
52067;SDS011;60237;52.338;21.228;2023-06-22T04:36:36;811.88;;;745.10;;
52067;SDS011;60237;52.338;21.228;2023-06-22T04:39:08;846.08;;;768.30;;
52067;SDS011;60237;52.338;21.228;2023-06-22T04:41:37;774.17;;;712.97;;
52067;SDS011;60237;52.338;21.228;2023-06-22T04:44:14;820.63;;;756.28;;
52067;SDS011;60237;52.338;21.228;2023-06-22T04:46:55;403.45;;;372.38;;
52067;SDS011;60237;52.338;21.228;2023-06-22T04:49:27;428.70;;;395.60;;
52067;SDS011;60237;52.338;21.228;2023-06-22T04:52:01;342.90;;;315.92;;
52067;SDS011;60237;52.338;21.228;2023-06-22T04:54:31;334.05;;;301.63;;
52067;SDS011;60237;52.338;21.228;2023-06-22T04:57:01;289.42;;;258.83;;
52067;SDS011;60237;52.338;21.228;2023-06-22T04:59:28;263.17;;;240.20;;
52067;SDS011;60237;52.338;21.228;2023-06-22T05:03:53;226.35;;;150.98;;
52067;SDS011;60237;52.338;21.228;2023-06-22T05:06:24;252.63;;;141.65;;
52067;SDS011;60237;52.338;21.228;2023-06-22T05:08:52;143.75;;;128.43;;
52067;SDS011;60237;52.338;21.228;2023-06-22T05:11:20;123.43;;;91.25;;
52067;SDS011;60237;52.338;21.228;2023-06-22T05:13:46;121.32;;;83.85;;
52067;SDS011;60237;52.338;21.228;2023-06-22T05:16:13;94.70;;;84.03;;
52067;SDS011;60237;52.338;21.228;2023-06-22T05:18:40;126.07;;;82.32;;
52067;SDS011;60237;52.338;21.228;2023-06-22T05:21:09;109.30;;;96.70;;
52067;SDS011;60237;52.338;21.228;2023-06-22T05:23:36;127.43;;;114.28;;
52067;SDS011;60237;52.338;21.228;2023-06-22T05:26:03;171.48;;;101.40;;
52067;SDS011;60237;52.338;21.228;2023-06-22T05:28:30;146.88;;;120.20;;
52067;SDS011;60237;52.338;21.228;2023-06-22T05:30:57;165.32;;;138.27;;
52067;SDS011;60237;52.338;21.228;2023-06-22T05:33:24;145.90;;;129.90;;
52067;SDS011;60237;52.338;21.228;2023-06-22T05:35:51;157.90;;;126.63;;
52067;SDS011;60237;52.338;21.228;2023-06-22T05:38:18;144.32;;;128.57;;
52067;SDS011;60237;52.338;21.228;2023-06-22T05:40:45;169.10;;;123.78;;
52067;SDS011;60237;52.338;21.228;2023-06-22T05:49:13;141.80;;;125.07;;
52067;SDS011;60237;52.338;21.228;2023-06-22T05:51:40;138.35;;;122.25;;
52067;SDS011;60237;52.338;21.228;2023-06-22T05:54:07;124.03;;;111.20;;
52067;SDS011;60237;52.338;21.228;2023-06-22T05:56:35;124.93;;;112.43;;
52067;SDS011;60237;52.338;21.228;2023-06-22T05:59:03;135.45;;;117.63;;
52067;SDS011;60237;52.338;21.228;2023-06-22T06:01:30;144.77;;;132.60;;
52067;SDS011;60237;52.338;21.228;2023-06-22T06:04:02;133.80;;;120.53;;
52067;SDS011;60237;52.338;21.228;2023-06-22T06:06:31;134.70;;;123.10;;
52067;SDS011;60237;52.338;21.228;2023-06-22T06:08:58;137.50;;;124.78;;
52067;SDS011;60237;52.338;21.228;2023-06-22T06:11:26;123.45;;;102.25;;
52067;SDS011;60237;52.338;21.228;2023-06-22T06:13:53;99.15;;;77.28;;
52067;SDS011;60237;52.338;21.228;2023-06-22T06:16:21;124.22;;;64.95;;
52067;SDS011;60237;52.338;21.228;2023-06-22T06:18:48;90.38;;;56.15;;
52067;SDS011;60237;52.338;21.228;2023-06-22T06:21:17;96.78;;;54.83;;
52067;SDS011;60237;52.338;21.228;2023-06-22T06:23:44;94.53;;;51.78;;
52067;SDS011;60237;52.338;21.228;2023-06-22T06:26:11;123.15;;;49.63;;
52067;SDS011;60237;52.338;21.228;2023-06-22T06:28:38;121.05;;;47.20;;
52067;SDS011;60237;52.338;21.228;2023-06-22T06:31:05;125.47;;;51.42;;
52067;SDS011;60237;52.338;21.228;2023-06-22T06:33:36;100.28;;;52.78;;
52067;SDS011;60237;52.338;21.228;2023-06-22T06:36:03;86.60;;;53.63;;
52067;SDS011;60237;52.338;21.228;2023-06-22T06:38:30;98.68;;;55.42;;
52067;SDS011;60237;52.338;21.228;2023-06-22T06:40:57;89.18;;;57.72;;
52067;SDS011;60237;52.338;21.228;2023-06-22T06:43:24;85.43;;;55.70;;
52067;SDS011;60237;52.338;21.228;2023-06-22T06:45:52;201.00;;;67.57;;
52067;SDS011;60237;52.338;21.228;2023-06-22T06:48:19;103.35;;;69.20;;
52067;SDS011;60237;52.338;21.228;2023-06-22T06:50:46;103.10;;;72.85;;
52067;SDS011;60237;52.338;21.228;2023-06-22T06:53:13;123.93;;;83.18;;
52067;SDS011;60237;52.338;21.228;2023-06-22T06:55:40;116.50;;;88.60;;
52067;SDS011;60237;52.338;21.228;2023-06-22T06:58:07;123.20;;;92.65;;
52067;SDS011;60237;52.338;21.228;2023-06-22T07:00:36;129.95;;;97.00;;
52067;SDS011;60237;52.338;21.228;2023-06-22T07:03:03;103.88;;;92.63;;
52067;SDS011;60237;52.338;21.228;2023-06-22T07:05:31;126.03;;;87.45;;
52067;SDS011;60237;52.338;21.228;2023-06-22T07:07:58;100.40;;;77.63;;
52067;SDS011;60237;52.338;21.228;2023-06-22T07:10:25;107.05;;;74.95;;
52067;SDS011;60237;52.338;21.228;2023-06-22T07:12:53;108.68;;;74.15;;
52067;SDS011;60237;52.338;21.228;2023-06-22T07:15:20;187.80;;;81.75;;
52067;SDS011;60237;52.338;21.228;2023-06-22T07:17:47;101.70;;;74.40;;
52067;SDS011;60237;52.338;21.228;2023-06-22T07:20:14;93.97;;;81.38;;
52067;SDS011;60237;52.338;21.228;2023-06-22T07:22:42;128.32;;;95.28;;
52067;SDS011;60237;52.338;21.228;2023-06-22T07:25:09;122.80;;;93.00;;
52067;SDS011;60237;52.338;21.228;2023-06-22T07:27:45;124.95;;;94.53;;
52067;SDS011;60237;52.338;21.228;2023-06-22T07:30:13;123.20;;;101.28;;
52067;SDS011;60237;52.338;21.228;2023-06-22T07:32:40;112.38;;;100.22;;
52067;SDS011;60237;52.338;21.228;2023-06-22T07:35:08;116.78;;;105.95;;
52067;SDS011;60237;52.338;21.228;2023-06-22T07:37:35;119.38;;;108.38;;
52067;SDS011;60237;52.338;21.228;2023-06-22T07:40:02;126.80;;;113.22;;
52067;SDS011;60237;52.338;21.228;2023-06-22T07:42:33;147.52;;;117.22;;
52067;SDS011;60237;52.338;21.228;2023-06-22T07:45:00;143.55;;;128.15;;
52067;SDS011;60237;52.338;21.228;2023-06-22T07:47:28;192.43;;;132.23;;
52067;SDS011;60237;52.338;21.228;2023-06-22T07:49:57;146.60;;;133.13;;
52067;SDS011;60237;52.338;21.228;2023-06-22T07:52:25;158.32;;;129.02;;
52067;SDS011;60237;52.338;21.228;2023-06-22T07:54:54;123.60;;;107.68;;
52067;SDS011;60237;52.338;21.228;2023-06-22T07:57:21;137.73;;;93.82;;
52067;SDS011;60237;52.338;21.228;2023-06-22T07:59:48;106.60;;;82.10;;
52067;SDS011;60237;52.338;21.228;2023-06-22T08:02:15;103.53;;;64.40;;
52067;SDS011;60237;52.338;21.228;2023-06-22T08:04:42;105.90;;;65.80;;
52067;SDS011;60237;52.338;21.228;2023-06-22T08:07:10;83.82;;;54.58;;
52067;SDS011;60237;52.338;21.228;2023-06-22T08:09:37;95.13;;;54.42;;
52067;SDS011;60237;52.338;21.228;2023-06-22T08:12:04;78.72;;;56.25;;
52067;SDS011;60237;52.338;21.228;2023-06-22T08:14:31;83.75;;;57.65;;
52067;SDS011;60237;52.338;21.228;2023-06-22T08:16:59;99.97;;;64.28;;
52067;SDS011;60237;52.338;21.228;2023-06-22T08:19:26;101.15;;;63.20;;
52067;SDS011;60237;52.338;21.228;2023-06-22T08:21:53;88.43;;;71.10;;
52067;SDS011;60237;52.338;21.228;2023-06-22T08:24:20;83.65;;;73.57;;
52067;SDS011;60237;52.338;21.228;2023-06-22T08:26:47;113.13;;;81.57;;
52067;SDS011;60237;52.338;21.228;2023-06-22T08:29:14;101.20;;;74.78;;
52067;SDS011;60237;52.338;21.228;2023-06-22T08:31:41;95.25;;;71.82;;
52067;SDS011;60237;52.338;21.228;2023-06-22T08:34:08;94.38;;;75.53;;
52067;SDS011;60237;52.338;21.228;2023-06-22T08:36:36;111.10;;;78.80;;
52067;SDS011;60237;52.338;21.228;2023-06-22T08:39:08;85.20;;;74.55;;
52067;SDS011;60237;52.338;21.228;2023-06-22T08:41:35;103.93;;;80.57;;
52067;SDS011;60237;52.338;21.228;2023-06-22T08:44:02;97.55;;;74.63;;
52067;SDS011;60237;52.338;21.228;2023-06-22T08:46:30;137.50;;;79.45;;
52067;SDS011;60237;52.338;21.228;2023-06-22T08:49:00;87.72;;;74.90;;
52067;SDS011;60237;52.338;21.228;2023-06-22T08:51:27;102.80;;;75.57;;
52067;SDS011;60237;52.338;21.228;2023-06-22T08:53:55;97.13;;;70.60;;
52067;SDS011;60237;52.338;21.228;2023-06-22T08:56:22;85.85;;;65.00;;
52067;SDS011;60237;52.338;21.228;2023-06-22T08:58:49;92.32;;;57.15;;
52067;SDS011;60237;52.338;21.228;2023-06-22T09:01:19;97.35;;;59.95;;
52067;SDS011;60237;52.338;21.228;2023-06-22T09:03:47;175.25;;;64.28;;
52067;SDS011;60237;52.338;21.228;2023-06-22T09:06:21;91.22;;;52.17;;
52067;SDS011;60237;52.338;21.228;2023-06-22T09:08:48;86.65;;;51.60;;
52067;SDS011;60237;52.338;21.228;2023-06-22T09:11:15;89.93;;;53.65;;
52067;SDS011;60237;52.338;21.228;2023-06-22T09:13:42;96.72;;;48.35;;
52067;SDS011;60237;52.338;21.228;2023-06-22T09:16:10;100.93;;;52.97;;
52067;SDS011;60237;52.338;21.228;2023-06-22T09:18:38;125.80;;;56.72;;
52067;SDS011;60237;52.338;21.228;2023-06-22T09:21:05;89.93;;;53.90;;
52067;SDS011;60237;52.338;21.228;2023-06-22T09:23:32;94.43;;;55.17;;
52067;SDS011;60237;52.338;21.228;2023-06-22T09:26:00;84.82;;;49.50;;
52067;SDS011;60237;52.338;21.228;2023-06-22T09:28:27;74.47;;;56.28;;
52067;SDS011;60237;52.338;21.228;2023-06-22T09:30:54;93.05;;;52.60;;
52067;SDS011;60237;52.338;21.228;2023-06-22T09:33:26;66.27;;;55.80;;
52067;SDS011;60237;52.338;21.228;2023-06-22T09:35:53;77.60;;;56.50;;
52067;SDS011;60237;52.338;21.228;2023-06-22T09:38:20;97.25;;;59.90;;
52067;SDS011;60237;52.338;21.228;2023-06-22T09:40:47;103.50;;;64.93;;
52067;SDS011;60237;52.338;21.228;2023-06-22T09:43:14;108.90;;;67.50;;
52067;SDS011;60237;52.338;21.228;2023-06-22T09:45:41;104.57;;;77.20;;
52067;SDS011;60237;52.338;21.228;2023-06-22T09:48:08;73.47;;;58.15;;
52067;SDS011;60237;52.338;21.228;2023-06-22T09:50:36;117.10;;;66.90;;
52067;SDS011;60237;52.338;21.228;2023-06-22T09:53:04;75.60;;;61.65;;
52067;SDS011;60237;52.338;21.228;2023-06-22T09:55:31;92.68;;;60.80;;
52067;SDS011;60237;52.338;21.228;2023-06-22T09:57:58;80.18;;;61.55;;
52067;SDS011;60237;52.338;21.228;2023-06-22T10:00:25;72.03;;;59.17;;
52067;SDS011;60237;52.338;21.228;2023-06-22T10:02:53;107.47;;;71.40;;
52067;SDS011;60237;52.338;21.228;2023-06-22T10:05:26;69.97;;;60.85;;
52067;SDS011;60237;52.338;21.228;2023-06-22T10:07:54;77.15;;;69.05;;
52067;SDS011;60237;52.338;21.228;2023-06-22T10:10:21;85.68;;;66.05;;
52067;SDS011;60237;52.338;21.228;2023-06-22T10:12:54;90.53;;;62.40;;
52067;SDS011;60237;52.338;21.228;2023-06-22T10:15:22;68.95;;;56.30;;
52067;SDS011;60237;52.338;21.228;2023-06-22T10:17:49;294.67;;;63.55;;
52067;SDS011;60237;52.338;21.228;2023-06-22T10:20:16;104.72;;;51.55;;
52067;SDS011;60237;52.338;21.228;2023-06-22T10:22:45;69.13;;;44.45;;
52067;SDS011;60237;52.338;21.228;2023-06-22T10:25:12;68.93;;;39.30;;
52067;SDS011;60237;52.338;21.228;2023-06-22T10:27:40;47.83;;;31.75;;
52067;SDS011;60237;52.338;21.228;2023-06-22T10:30:08;57.33;;;37.28;;
52067;SDS011;60237;52.338;21.228;2023-06-22T10:32:37;48.85;;;33.20;;
52067;SDS011;60237;52.338;21.228;2023-06-22T10:35:04;64.43;;;40.65;;
52067;SDS011;60237;52.338;21.228;2023-06-22T10:37:53;64.47;;;38.03;;
52067;SDS011;60237;52.338;21.228;2023-06-22T10:40:21;70.20;;;34.85;;
52067;SDS011;60237;52.338;21.228;2023-06-22T10:42:48;67.07;;;37.00;;
52067;SDS011;60237;52.338;21.228;2023-06-22T10:45:16;66.38;;;33.75;;
52067;SDS011;60237;52.338;21.228;2023-06-22T10:47:43;54.00;;;34.55;;
52067;SDS011;60237;52.338;21.228;2023-06-22T10:50:11;77.85;;;37.88;;
52067;SDS011;60237;52.338;21.228;2023-06-22T10:52:38;214.35;;;47.08;;
52067;SDS011;60237;52.338;21.228;2023-06-22T10:55:06;46.90;;;33.60;;
52067;SDS011;60237;52.338;21.228;2023-06-22T10:57:33;40.85;;;35.85;;
52067;SDS011;60237;52.338;21.228;2023-06-22T10:59:59;43.60;;;38.42;;
52067;SDS011;60237;52.338;21.228;2023-06-22T11:02:26;47.42;;;43.78;;
52067;SDS011;60237;52.338;21.228;2023-06-22T11:04:55;61.45;;;51.65;;
52067;SDS011;60237;52.338;21.228;2023-06-22T11:07:22;158.80;;;71.70;;
52067;SDS011;60237;52.338;21.228;2023-06-22T11:09:48;94.15;;;71.68;;
52067;SDS011;60237;52.338;21.228;2023-06-22T11:12:16;76.20;;;68.18;;
52067;SDS011;60237;52.338;21.228;2023-06-22T11:14:42;121.60;;;77.85;;
52067;SDS011;60237;52.338;21.228;2023-06-22T11:17:09;88.80;;;78.53;;
52067;SDS011;60237;52.338;21.228;2023-06-22T11:19:36;88.25;;;80.63;;
52067;SDS011;60237;52.338;21.228;2023-06-22T11:22:03;91.85;;;83.28;;
52067;SDS011;60237;52.338;21.228;2023-06-22T11:24:30;82.43;;;74.20;;
52067;SDS011;60237;52.338;21.228;2023-06-22T11:26:57;92.22;;;82.93;;
52067;SDS011;60237;52.338;21.228;2023-06-22T11:29:25;98.07;;;89.57;;
52067;SDS011;60237;52.338;21.228;2023-06-22T11:32:04;97.10;;;87.63;;
52067;SDS011;60237;52.338;21.228;2023-06-22T11:34:31;99.35;;;89.93;;
52067;SDS011;60237;52.338;21.228;2023-06-22T11:36:58;111.32;;;98.50;;
52067;SDS011;60237;52.338;21.228;2023-06-22T11:39:25;98.72;;;88.13;;
52067;SDS011;60237;52.338;21.228;2023-06-22T11:42:06;107.60;;;97.00;;
52067;SDS011;60237;52.338;21.228;2023-06-22T11:44:33;100.78;;;92.65;;
52067;SDS011;60237;52.338;21.228;2023-06-22T11:47:01;101.32;;;91.20;;
52067;SDS011;60237;52.338;21.228;2023-06-22T11:49:30;159.23;;;107.95;;
52067;SDS011;60237;52.338;21.228;2023-06-22T11:51:57;117.63;;;106.38;;
52067;SDS011;60237;52.338;21.228;2023-06-22T11:54:24;118.28;;;108.40;;
52067;SDS011;60237;52.338;21.228;2023-06-22T11:56:51;114.93;;;104.18;;
52067;SDS011;60237;52.338;21.228;2023-06-22T11:59:18;117.93;;;106.03;;
52067;SDS011;60237;52.338;21.228;2023-06-22T12:01:45;121.90;;;109.22;;
52067;SDS011;60237;52.338;21.228;2023-06-22T12:04:13;124.03;;;111.28;;
52067;SDS011;60237;52.338;21.228;2023-06-22T12:06:40;473.98;;;129.93;;
52067;SDS011;60237;52.338;21.228;2023-06-22T12:09:09;124.13;;;113.22;;
52067;SDS011;60237;52.338;21.228;2023-06-22T12:11:36;130.90;;;118.18;;
52067;SDS011;60237;52.338;21.228;2023-06-22T12:14:03;146.68;;;89.95;;
52067;SDS011;60237;52.338;21.228;2023-06-22T12:16:31;92.85;;;83.25;;
52067;SDS011;60237;52.338;21.228;2023-06-22T12:18:58;111.43;;;89.72;;
52067;SDS011;60237;52.338;21.228;2023-06-22T12:21:25;103.20;;;89.22;;
52067;SDS011;60237;52.338;21.228;2023-06-22T12:23:52;107.28;;;82.80;;
52067;SDS011;60237;52.338;21.228;2023-06-22T12:26:19;95.22;;;85.20;;
52067;SDS011;60237;52.338;21.228;2023-06-22T12:28:46;116.00;;;87.43;;
52067;SDS011;60237;52.338;21.228;2023-06-22T12:31:14;111.07;;;87.70;;
52067;SDS011;60237;52.338;21.228;2023-06-22T12:33:41;94.35;;;80.40;;
52067;SDS011;60237;52.338;21.228;2023-06-22T12:36:08;92.72;;;84.05;;
52067;SDS011;60237;52.338;21.228;2023-06-22T12:38:35;87.47;;;78.45;;
52067;SDS011;60237;52.338;21.228;2023-06-22T12:41:02;97.93;;;87.97;;
52067;SDS011;60237;52.338;21.228;2023-06-22T12:43:30;109.28;;;82.95;;
52067;SDS011;60237;52.338;21.228;2023-06-22T12:45:57;98.45;;;83.50;;
52067;SDS011;60237;52.338;21.228;2023-06-22T12:48:25;96.80;;;86.88;;
52067;SDS011;60237;52.338;21.228;2023-06-22T12:50:52;121.43;;;85.32;;
52067;SDS011;60237;52.338;21.228;2023-06-22T12:53:21;130.95;;;96.43;;
52067;SDS011;60237;52.338;21.228;2023-06-22T12:55:50;168.27;;;94.88;;
52067;SDS011;60237;52.338;21.228;2023-06-22T12:58:17;92.05;;;82.40;;
52067;SDS011;60237;52.338;21.228;2023-06-22T13:00:44;131.75;;;98.78;;
52067;SDS011;60237;52.338;21.228;2023-06-22T13:03:11;106.07;;;95.55;;
52067;SDS011;60237;52.338;21.228;2023-06-22T13:05:38;99.00;;;89.75;;
52067;SDS011;60237;52.338;21.228;2023-06-22T13:08:05;103.18;;;89.45;;
52067;SDS011;60237;52.338;21.228;2023-06-22T13:10:32;87.65;;;80.03;;
52067;SDS011;60237;52.338;21.228;2023-06-22T13:12:59;89.35;;;81.07;;
52067;SDS011;60237;52.338;21.228;2023-06-22T13:15:28;92.05;;;83.90;;
52067;SDS011;60237;52.338;21.228;2023-06-22T13:17:55;94.63;;;84.93;;
52067;SDS011;60237;52.338;21.228;2023-06-22T13:20:23;102.75;;;86.18;;
52067;SDS011;60237;52.338;21.228;2023-06-22T13:22:49;86.43;;;77.78;;
52067;SDS011;60237;52.338;21.228;2023-06-22T13:25:16;121.15;;;89.25;;
52067;SDS011;60237;52.338;21.228;2023-06-22T13:27:45;121.85;;;75.72;;
52067;SDS011;60237;52.338;21.228;2023-06-22T13:30:13;99.15;;;72.53;;
52067;SDS011;60237;52.338;21.228;2023-06-22T13:32:41;99.38;;;88.72;;
52067;SDS011;60237;52.338;21.228;2023-06-22T13:35:11;173.05;;;85.20;;
52067;SDS011;60237;52.338;21.228;2023-06-22T13:37:38;82.43;;;74.75;;
52067;SDS011;60237;52.338;21.228;2023-06-22T13:40:05;93.45;;;72.10;;
52067;SDS011;60237;52.338;21.228;2023-06-22T13:42:33;75.80;;;69.55;;
52067;SDS011;60237;52.338;21.228;2023-06-22T13:45:00;76.95;;;69.13;;
52067;SDS011;60237;52.338;21.228;2023-06-22T13:47:28;74.93;;;67.10;;
52067;SDS011;60237;52.338;21.228;2023-06-22T13:49:57;137.90;;;70.97;;
52067;SDS011;60237;52.338;21.228;2023-06-22T13:52:24;79.85;;;65.30;;
52067;SDS011;60237;52.338;21.228;2023-06-22T13:54:51;92.88;;;69.75;;
52067;SDS011;60237;52.338;21.228;2023-06-22T13:57:18;86.72;;;69.32;;
52067;SDS011;60237;52.338;21.228;2023-06-22T13:59:46;68.03;;;61.22;;
52067;SDS011;60237;52.338;21.228;2023-06-22T14:04:32;122.43;;;71.05;;
52067;SDS011;60237;52.338;21.228;2023-06-22T14:06:59;197.18;;;81.38;;
52067;SDS011;60237;52.338;21.228;2023-06-22T14:09:26;102.10;;;69.95;;
52067;SDS011;60237;52.338;21.228;2023-06-22T14:11:54;80.55;;;72.13;;
52067;SDS011;60237;52.338;21.228;2023-06-22T14:14:20;80.18;;;72.93;;